Glencoe, MN

10:24 AM CST on December 07, 2016 (GMT -0600)
Severance Lake | | Change Station

Elev 997 ft 44.68 °N, 94.13 °W | Updated 14 minutes ago

Light Snow
Light Snow
15.7 °F
Feels Like -1 °F
N
18.0
Wind Variable Wind from WSW
Gusts 22.0 mph

Today
High -- | Low -- °F
--% Chance of Precip.
Yesterday
High -- | Low -- °F
Precip. -- in
Pressure 30.07 in
Visibility 7.0 miles
Clouds Scattered Clouds 1900 ft
Scattered Clouds 2700 ft
Overcast 3300 ft
Windchill -1 °F
Dew Point 11 °F
Humidity 81%
Rainfall 0.00 in
Snow Depth Not available.
7:40 AM 4:35 PM
First Quarter, 54% visible
METAR KGYL 071615Z AUTO 26016G22KT 7SM -SN SCT019 SCT027 OVC033 M08/M11 A3007 RMK AO2 T10831111
Pressure 30.07 in
Visibility 7.0 miles
Clouds Scattered Clouds 1900 ft
Scattered Clouds 2700 ft
Overcast 3300 ft
Windchill -1 °F
Dew Point 11 °F
Humidity 81%
Rainfall 0.00 in
Snow Depth Not available.
7:40 AM 4:35 PM
First Quarter, 54% visible
METAR KGYL 071615Z AUTO 26016G22KT 7SM -SN SCT019 SCT027 OVC033 M08/M11 A3007 RMK AO2 T10831111

10-Day Weather Forecast

Almanac

Astronomy

Dec. 07, 2016 Rise Set
Actual Time
Civil Twilight
Nautical Twilight
Astronomical Twilight
Moon
Length of Visible Light
Length of Day
Tomorrow will be .
, % of the Moon is Illuminated

Today's Extremes

State Highs State Lows

Community

WunderPhotos

Upload Photos

1,956,132 photos uploaded!

WunderBlog® & News

Nearby

Air Quality

  Air Quality AQ Index Pollutant
Not available.

Snow Depth

Station Depth Elevation

Earthquake Activity

City Distance Mag. Time & Date
Minimum magnitude displayed is 2.5.

Coastal Water Temperatures

Place Temperature

Stations

Nearby Weather Stations

Station Location Temp. Windchill Dew Point Humidity Wind Precip. Elev Updated Type
                   

Watches & Warnings

There are currently no watches in effect.